MincHOS Sexto — EAVW — position and weather

sailwx.info

Track history (hours):
 
Tides and Currents Weather Stations Pressure Air Temp Water Temp Dewpoint Dewpoint Depression Visibility Wind Speed Wind Dir Waves Ship Positions

MincHOS Sexto

Last reported at 2014-Dec-17 20:17 UTC. Time now 2014-Dec-23 01:37 UTC.
Position N 43°34' W 005°40'.

Length 30 m; draft 3 m.

Type: Fishing. MMSI: 224204490.

Date/timePositionNaut miles runAvg speedWind from/ knotsBaromVisibWave heightAir tempDewpointWater temp
2014-Dec-17 20:17N 43°34' W 005°40'1 0.2
2014-Dec-17 17:30N 43°35' W 005°40'7 7.0
2014-Dec-17 16:29N 43°40' W 005°33'8 7.8
2014-Dec-17 15:29N 43°45' W 005°25'14 0.3
2014-Dec-15 23:05N 43°36' W 005°39'  
2014-Dec-10 22:27N 43°36' W 005°40'3 3.0
2014-Dec-10 21:33N 43°33' W 005°42'0 0.0
2014-Dec-10 20:33N 43°33' W 005°42'0 0.0
2014-Dec-10 19:33N 43°33' W 005°42'0 0.0
2014-Dec-10 18:33N 43°33' W 005°42'0 0.0
2014-Dec-10 17:33N 43°33' W 005°42'0 0.0
2014-Dec-10 16:33N 43°33' W 005°42'0 0.0
2014-Dec-10 15:33N 43°33' W 005°42'0 0.1
2014-Dec-10 14:33N 43°33' W 005°42'0 0.0
2014-Dec-09 16:12N 43°33' W 005°42'5 8.0
2014-Dec-09 15:32N 43°38' W 005°38'4 0.3
2014-Dec-08 22:33N 43°34' W 005°40'1 0.9
2014-Dec-08 21:26N 43°33' W 005°42'9 9.7
2014-Dec-08 20:33N 43°39' W 005°33'7 0.3
2014-Dec-08 00:28N 43°35' W 005°40'2 2.3
2014-Dec-07 23:33N 43°33' W 005°42'  
Track history (hours):
 
Tides and Currents Weather Stations Pressure Air Temp Water Temp Dewpoint Dewpoint Depression Visibility Wind Speed Wind Dir Waves Ship Positions

MincHOS Sexto

Last reported at 2014-Dec-17 20:17 UTC. Time now 2014-Dec-23 01:37 UTC.
Position N 43°34' W 005°40'.

Length 30 m; draft 3 m.

Type: Fishing. MMSI: 224204490.

Date/timePositionNaut miles runAvg speedWind from/ knotsBaromVisibWave heightAir tempDewpointWater temp
2014-Dec-17 20:17N 43°34' W 005°40'1 0.2
2014-Dec-17 17:30N 43°35' W 005°40'7 7.0
2014-Dec-17 16:29N 43°40' W 005°33'8 7.8
2014-Dec-17 15:29N 43°45' W 005°25'14 0.3
2014-Dec-15 23:05N 43°36' W 005°39'  
2014-Dec-10 22:27N 43°36' W 005°40'3 3.0
2014-Dec-10 21:33N 43°33' W 005°42'0 0.0
2014-Dec-10 20:33N 43°33' W 005°42'0 0.0
2014-Dec-10 19:33N 43°33' W 005°42'0 0.0
2014-Dec-10 18:33N 43°33' W 005°42'0 0.0
2014-Dec-10 17:33N 43°33' W 005°42'0 0.0
2014-Dec-10 16:33N 43°33' W 005°42'0 0.0
2014-Dec-10 15:33N 43°33' W 005°42'0 0.1
2014-Dec-10 14:33N 43°33' W 005°42'0 0.0
2014-Dec-09 16:12N 43°33' W 005°42'5 8.0
2014-Dec-09 15:32N 43°38' W 005°38'4 0.3
2014-Dec-08 22:33N 43°34' W 005°40'1 0.9
2014-Dec-08 21:26N 43°33' W 005°42'9 9.7
2014-Dec-08 20:33N 43°39' W 005°33'7 0.3
2014-Dec-08 00:28N 43°35' W 005°40'2 2.3
2014-Dec-07 23:33N 43°33' W 005°42'  

Dump ship's entire track history